createdAt,value
2019-04-06T00:00:40.462Z,98133.67
2019-04-06T00:03:06.727Z,98140.40
2019-04-06T00:05:32.984Z,98122.21
2019-04-06T00:07:59.157Z,98121.25
2019-04-06T00:10:25.334Z,98126.66
2019-04-06T00:12:51.657Z,98125.07
2019-04-06T00:15:18.060Z,98123.08
2019-04-06T00:17:44.270Z,98126.09
2019-04-06T00:20:10.371Z,98127.00
2019-04-06T00:22:36.896Z,98133.31
2019-04-06T00:25:04.948Z,98138.16
2019-04-06T00:27:31.084Z,98131.53
2019-04-06T00:29:57.649Z,98135.00
2019-04-06T00:32:28.628Z,98131.25
2019-04-06T00:34:54.791Z,98144.77
2019-04-06T00:37:21.224Z,98137.37
2019-04-06T00:39:47.412Z,98135.78
2019-04-06T00:42:13.594Z,98140.84
2019-04-06T00:44:39.937Z,98145.25
2019-04-06T00:47:06.197Z,98146.78
2019-04-06T00:49:32.325Z,98140.77
2019-04-06T00:51:58.841Z,98147.20
2019-04-06T00:54:24.966Z,98155.64
2019-04-06T00:56:51.256Z,98155.92
2019-04-06T00:59:17.707Z,98156.00
2019-04-06T01:01:43.941Z,98150.11
2019-04-06T01:04:10.090Z,98153.94
2019-04-06T01:06:36.696Z,98152.34
2019-04-06T01:09:06.580Z,98145.06
2019-04-06T01:11:32.721Z,98153.04
2019-04-06T01:13:59.201Z,98145.02
2019-04-06T01:16:25.240Z,98138.65
2019-04-06T01:18:52.612Z,98142.67
2019-04-06T01:21:19.558Z,98140.80
2019-04-06T01:23:45.700Z,98129.11
2019-04-06T01:26:11.946Z,98139.42
2019-04-06T01:28:38.578Z,98137.67
2019-04-06T01:31:04.714Z,98130.48
2019-04-06T01:33:30.820Z,98138.94
2019-04-06T01:35:57.142Z,98119.05
2019-04-06T01:38:23.162Z,98115.86
2019-04-06T01:40:49.475Z,98126.05
2019-04-06T01:43:15.715Z,98122.64
2019-04-06T01:45:42.159Z,98114.97
2019-04-06T01:48:08.301Z,98119.25
2019-04-06T01:50:34.429Z,98119.41
2019-04-06T01:53:01.001Z,98122.80
2019-04-06T01:55:27.375Z,98130.48
2019-04-06T01:57:53.529Z,98124.80
2019-04-06T02:00:22.075Z,98121.13
2019-04-06T02:02:54.039Z,98129.72
2019-04-06T02:05:22.252Z,98141.42
2019-04-06T02:07:49.515Z,98138.16
2019-04-06T02:10:16.040Z,98138.03
2019-04-06T02:12:42.096Z,98134.64
2019-04-06T02:15:08.780Z,98128.34
2019-04-06T02:17:35.032Z,98137.14
2019-04-06T02:20:01.314Z,97925.05
2019-04-06T02:22:28.185Z,98136.23
2019-04-06T02:24:54.435Z,98137.31
2019-04-06T02:27:20.796Z,98134.21
2019-04-06T02:29:49.485Z,98143.63
2019-04-06T02:32:17.562Z,98136.41
2019-04-06T02:34:45.499Z,98137.64
2019-04-06T02:37:19.835Z,98133.36
2019-04-06T02:39:50.652Z,98140.62
2019-04-06T02:42:18.762Z,98131.41
2019-04-06T02:44:45.011Z,98124.64
2019-04-06T02:47:13.120Z,98126.02
2019-04-06T02:49:39.743Z,98123.09
2019-04-06T02:52:06.018Z,98133.77
2019-04-06T02:54:32.068Z,98123.38
2019-04-06T02:56:58.206Z,98133.08
2019-04-06T02:59:24.339Z,98129.41
2019-04-06T03:01:50.509Z,98126.64
2019-04-06T03:04:16.722Z,98118.33
2019-04-06T03:06:43.342Z,98122.61
2019-04-06T03:09:11.483Z,98118.25
2019-04-06T03:11:37.578Z,98128.39
2019-04-06T03:14:04.328Z,98123.30
2019-04-06T03:16:30.899Z,98124.07
2019-04-06T03:18:57.289Z,98113.14
2019-04-06T03:21:23.970Z,98124.23
2019-04-06T03:23:52.231Z,98127.90
2019-04-06T03:26:18.299Z,98084.75
2019-04-06T03:28:44.399Z,98133.28
2019-04-06T03:31:11.101Z,98128.52
2019-04-06T03:33:37.654Z,98115.91
2019-04-06T03:36:03.924Z,98134.05
2019-04-06T03:38:30.517Z,98136.20
2019-04-06T03:40:56.529Z,98129.53
2019-04-06T03:43:22.670Z,98133.44
2019-04-06T03:45:49.129Z,98134.34
2019-04-06T03:48:15.256Z,98131.56
2019-04-06T03:50:41.378Z,98146.80
2019-04-06T03:53:07.534Z,98141.11
2019-04-06T03:55:33.690Z,98145.13
2019-04-06T03:58:00.325Z,98137.84
2019-04-06T04:00:27.122Z,98145.42
2019-04-06T04:02:53.321Z,98140.16
2019-04-06T04:05:19.520Z,98147.83
2019-04-06T04:07:45.611Z,98132.26
2019-04-06T04:10:31.149Z,98138.28
2019-04-06T04:12:57.791Z,98139.03
2019-04-06T04:15:24.868Z,98133.77
2019-04-06T04:17:51.048Z,98133.77
2019-04-06T04:20:17.069Z,98127.45
2019-04-06T04:22:43.490Z,98128.84
2019-04-06T04:25:09.636Z,98135.03
2019-04-06T04:27:37.674Z,98136.75
2019-04-06T04:30:06.327Z,98133.23
2019-04-06T04:32:32.601Z,98133.36
2019-04-06T04:34:58.724Z,98134.88
2019-04-06T04:37:25.282Z,98133.97
2019-04-06T04:39:51.382Z,98136.46
2019-04-06T04:42:17.541Z,98135.08
2019-04-06T04:44:44.215Z,98135.08
2019-04-06T04:47:10.423Z,98134.83
2019-04-06T04:49:37.093Z,98138.34
2019-04-06T04:52:03.292Z,98136.83
2019-04-06T04:54:29.330Z,98138.08
2019-04-06T04:56:55.387Z,98140.70
2019-04-06T04:59:21.551Z,98153.16
2019-04-06T05:01:47.596Z,98156.55
2019-04-06T05:04:13.721Z,98158.98
2019-04-06T05:06:39.993Z,98162.53
2019-04-06T05:09:06.426Z,98149.78
2019-04-06T05:11:32.596Z,98152.27
2019-04-06T05:14:36.488Z,98165.22
2019-04-06T05:17:02.769Z,98164.24
2019-04-06T05:19:29.012Z,98162.86
2019-04-06T05:21:55.426Z,98164.53
2019-04-06T05:24:21.568Z,98157.24
2019-04-06T05:26:47.809Z,98160.17
2019-04-06T05:29:14.168Z,98161.84
2019-04-06T05:31:40.404Z,98167.51
2019-04-06T05:34:06.670Z,98167.17
2019-04-06T05:36:33.208Z,98163.77
2019-04-06T05:38:59.360Z,98162.81
2019-04-06T05:41:25.367Z,98156.66
2019-04-06T05:43:53.155Z,98162.48
2019-04-06T05:46:19.153Z,98168.72
2019-04-06T05:48:45.683Z,98170.64
2019-04-06T05:51:12.094Z,98167.13
2019-04-06T05:53:38.333Z,98172.59
2019-04-06T05:56:04.613Z,98173.98
2019-04-06T05:58:31.799Z,98181.20
2019-04-06T06:01:00.466Z,98176.55
2019-04-06T06:03:26.516Z,98173.85
2019-04-06T06:05:53.257Z,98181.88
2019-04-06T06:08:19.266Z,98175.48
2019-04-06T06:10:45.502Z,98176.17
2019-04-06T06:13:11.946Z,98169.31
2019-04-06T06:15:38.680Z,98172.64
2019-04-06T06:18:05.212Z,98171.10
2019-04-06T06:20:31.328Z,98173.54
2019-04-06T06:22:57.420Z,98182.75
2019-04-06T06:25:23.985Z,98177.33
2019-04-06T06:27:50.058Z,98183.66
2019-04-06T06:30:16.585Z,98170.95
2019-04-06T06:32:42.985Z,98181.56
2019-04-06T06:35:09.122Z,98188.09
2019-04-06T06:37:35.687Z,98195.15
2019-04-06T06:40:03.446Z,98197.03
2019-04-06T06:42:29.559Z,98204.09
2019-04-06T06:44:55.782Z,98207.91
2019-04-06T06:47:22.432Z,98208.59
2019-04-06T06:49:48.554Z,98209.98
2019-04-06T06:52:14.654Z,98207.70
2019-04-06T06:54:41.529Z,98213.74
2019-04-06T06:57:07.673Z,98212.90
2019-04-06T06:59:33.804Z,98062.39
2019-04-06T07:02:00.412Z,98207.72
2019-04-06T07:04:26.592Z,98232.31
2019-04-06T07:06:52.728Z,98214.72
2019-04-06T07:09:19.207Z,98221.20
2019-04-06T07:11:45.450Z,98225.31
2019-04-06T07:14:11.631Z,98217.89
2019-04-06T07:16:37.882Z,98222.17
2019-04-06T07:19:04.091Z,98221.06
2019-04-06T07:21:30.755Z,98213.42
2019-04-06T07:23:56.876Z,98216.48
2019-04-06T07:26:23.017Z,98201.34
2019-04-06T07:28:49.420Z,98208.28
2019-04-06T07:31:15.681Z,98213.34
2019-04-06T07:33:42.136Z,98213.53
2019-04-06T07:36:08.398Z,98220.13
2019-04-06T07:38:34.554Z,98211.09
2019-04-06T07:41:00.695Z,98218.16
2019-04-06T07:43:27.251Z,98216.49
2019-04-06T07:45:53.398Z,98214.09
2019-04-06T07:48:19.545Z,98212.14
2019-04-06T07:50:45.704Z,98213.81
2019-04-06T07:53:11.870Z,98224.81
2019-04-06T07:55:37.989Z,98222.38
2019-04-06T07:58:04.656Z,98207.82
2019-04-06T08:00:31.058Z,98218.86
2019-04-06T08:02:57.458Z,98219.39
2019-04-06T08:05:23.652Z,98220.61
2019-04-06T08:07:49.771Z,98227.69
2019-04-06T08:10:15.971Z,98220.98
2019-04-06T08:12:42.542Z,98217.16
2019-04-06T08:15:08.685Z,98224.45
2019-04-06T08:17:35.128Z,98216.00
2019-04-06T08:20:01.652Z,98224.05
2019-04-06T08:22:27.764Z,98217.52
2019-04-06T08:24:53.871Z,98224.47
2019-04-06T08:27:20.330Z,98212.58
2019-04-06T08:29:46.870Z,98213.62
2019-04-06T08:32:13.408Z,98211.72
2019-04-06T08:34:40.241Z,98207.12
2019-04-06T08:37:06.375Z,98212.48
2019-04-06T08:39:32.552Z,98212.75
2019-04-06T08:41:59.053Z,98201.75
2019-04-06T08:44:25.093Z,98208.63
2019-04-06T08:46:51.327Z,98205.33
2019-04-06T08:49:17.871Z,98209.11
2019-04-06T08:51:44.135Z,98201.12
2019-04-06T08:54:10.285Z,98205.30
2019-04-06T08:56:36.485Z,98208.85
2019-04-06T08:59:11.217Z,98204.70
2019-04-06T09:01:31.112Z,98206.23
2019-04-06T09:03:57.967Z,98204.44
2019-04-06T09:06:24.159Z,98200.89
2019-04-06T09:08:50.358Z,98204.56
2019-04-06T09:11:16.403Z,98204.78
2019-04-06T09:13:42.723Z,98202.22
2019-04-06T09:16:08.980Z,98200.81
2019-04-06T09:18:35.584Z,98201.13
2019-04-06T09:21:02.536Z,98203.58
2019-04-06T09:23:28.683Z,98194.52
2019-04-06T09:25:55.228Z,98191.88
2019-04-06T09:28:21.408Z,98190.78
2019-04-06T09:30:47.455Z,98191.69
2019-04-06T09:33:14.125Z,98183.08
2019-04-06T09:35:40.300Z,98187.95
2019-04-06T09:38:08.378Z,98183.30
2019-04-06T09:40:35.151Z,98180.16
2019-04-06T09:43:01.319Z,98177.69
2019-04-06T09:45:35.691Z,98170.25
2019-04-06T09:48:07.423Z,98174.19
2019-04-06T09:50:38.219Z,98172.84
2019-04-06T09:53:22.737Z,98172.52
2019-04-06T09:55:53.899Z,98173.16
2019-04-06T09:58:36.812Z,98175.69
2019-04-06T10:01:07.029Z,98173.42
2019-04-06T10:03:44.203Z,98172.28
2019-04-06T10:06:14.979Z,98171.89
2019-04-06T10:08:59.721Z,98164.92
2019-04-06T10:11:37.361Z,98161.89
2019-04-06T10:14:11.432Z,98152.52
2019-04-06T10:16:57.279Z,98160.70
2019-04-06T10:19:42.330Z,98160.72
2019-04-06T10:22:26.789Z,98160.71
2019-04-06T10:24:55.024Z,98148.56
2019-04-06T10:27:29.503Z,98142.23
2019-04-06T10:30:14.641Z,98138.30
2019-04-06T10:32:59.517Z,98140.47
2019-04-06T10:35:36.806Z,98136.41
2019-04-06T10:38:22.982Z,98136.22
2019-04-06T10:40:56.877Z,98139.66
2019-04-06T10:43:24.940Z,98133.72
2019-04-06T10:46:04.978Z,98126.80
2019-04-06T10:48:33.639Z,98130.16
2019-04-06T10:51:07.438Z,98121.39
2019-04-06T10:53:47.618Z,98123.23
2019-04-06T10:56:24.905Z,98120.33
2019-04-06T10:58:52.924Z,98111.56
2019-04-06T11:01:37.981Z,98118.28
2019-04-06T11:04:06.029Z,98113.77
2019-04-06T11:06:49.248Z,98118.78
2019-04-06T11:09:17.937Z,98114.44
2019-04-06T11:11:45.974Z,98114.75
2019-04-06T11:14:16.567Z,98108.14
2019-04-06T11:17:01.061Z,98097.56
2019-04-06T11:19:35.281Z,98092.52
2019-04-06T11:22:20.902Z,98092.55
2019-04-06T11:25:06.012Z,98090.98
2019-04-06T11:27:46.810Z,98083.31
2019-04-06T11:30:31.525Z,98074.52
2019-04-06T11:33:06.100Z,98079.63
2019-04-06T11:35:34.125Z,98082.01
2019-04-06T11:38:18.748Z,98079.04
2019-04-06T11:40:56.097Z,98074.96
2019-04-06T11:43:27.078Z,98071.06
2019-04-06T11:46:01.122Z,98068.04
2019-04-06T11:48:32.019Z,98037.28
2019-04-06T11:51:00.037Z,98071.11
2019-04-06T11:53:43.610Z,98058.81
2019-04-06T11:56:11.802Z,98056.91
2019-04-06T11:58:40.328Z,98062.62
2019-04-06T12:01:17.775Z,98060.88
2019-04-06T12:03:45.840Z,98064.67
2019-04-06T12:06:17.475Z,98066.23
2019-04-06T12:08:51.445Z,98059.20
2019-04-06T12:11:22.570Z,98066.19
2019-04-06T12:13:59.725Z,98048.67
2019-04-06T12:16:28.231Z,98052.81
2019-04-06T12:19:08.156Z,98050.08
2019-04-06T12:21:42.011Z,98038.80
2019-04-06T12:24:22.071Z,98031.34
2019-04-06T12:27:06.766Z,98032.27
2019-04-06T12:29:35.189Z,98031.28
2019-04-06T12:32:21.444Z,98025.09
2019-04-06T12:34:50.171Z,98019.67
2019-04-06T12:37:23.952Z,98016.92
2019-04-06T12:39:54.617Z,98009.26
2019-04-06T12:42:22.887Z,98007.86
2019-04-06T12:45:00.456Z,98014.62
2019-04-06T12:47:47.654Z,98011.69
2019-04-06T12:50:16.198Z,98013.77
2019-04-06T12:52:47.888Z,98005.37
2019-04-06T12:55:16.265Z,98014.52
2019-04-06T12:57:59.900Z,98001.19
2019-04-06T13:00:49.512Z,98004.69
2019-04-06T13:03:16.826Z,97993.70
2019-04-06T13:05:45.196Z,97995.61
2019-04-06T13:08:24.996Z,97993.53
2019-04-06T13:11:04.837Z,97990.52
2019-04-06T13:13:33.192Z,97976.36
2019-04-06T13:16:18.251Z,97982.20
2019-04-06T13:18:49.069Z,97983.03
2019-04-06T13:21:23.054Z,97991.70
2019-04-06T13:24:03.159Z,97997.44
2019-04-06T13:26:43.290Z,97971.94
2019-04-06T13:29:23.424Z,97975.11
2019-04-06T13:31:54.557Z,97976.80
2019-04-06T13:34:25.548Z,97977.81
2019-04-06T13:37:08.849Z,97970.52
2019-04-06T13:39:53.965Z,97973.27
2019-04-06T13:42:24.762Z,97973.41
2019-04-06T13:45:09.547Z,97966.39
2019-04-06T13:47:37.906Z,97961.02
2019-04-06T13:50:07.443Z,97959.80
2019-04-06T13:52:38.771Z,97965.02
2019-04-06T13:55:07.546Z,97960.14
2019-04-06T13:57:38.309Z,97952.36
2019-04-06T14:00:13.386Z,97955.06
2019-04-06T14:02:56.300Z,97967.41
2019-04-06T14:05:40.878Z,97961.12
2019-04-06T14:08:11.446Z,97956.69
2019-04-06T14:10:39.975Z,97952.38
2019-04-06T14:13:24.515Z,97952.92
2019-04-06T14:15:53.240Z,97964.21
2019-04-06T14:18:33.340Z,97957.83
2019-04-06T14:21:02.653Z,97951.91
2019-04-06T14:23:39.621Z,97949.66
2019-04-06T14:26:16.299Z,97957.64
2019-04-06T14:28:53.255Z,97953.78
2019-04-06T14:31:28.183Z,97960.95
2019-04-06T14:33:51.618Z,97958.39
2019-04-06T14:36:22.405Z,97955.67
2019-04-06T14:38:56.677Z,97959.13
2019-04-06T14:41:24.707Z,97953.67
2019-04-06T14:43:52.833Z,97960.83
2019-04-06T14:46:27.516Z,97954.81
2019-04-06T14:49:27.468Z,97957.83
2019-04-06T14:51:48.911Z,97962.56
2019-04-06T14:54:17.104Z,97959.53
2019-04-06T14:56:54.866Z,97961.58
2019-04-06T14:59:23.415Z,97964.20
2019-04-06T15:02:00.753Z,97957.27
2019-04-06T15:04:44.776Z,97955.38
2019-04-06T15:07:29.592Z,97956.48
2019-04-06T15:10:15.166Z,97923.23
2019-04-06T15:12:43.597Z,97946.54
2019-04-06T15:15:21.081Z,97950.77
2019-04-06T15:17:49.284Z,97953.59
2019-04-06T15:20:34.351Z,97954.72
2019-04-06T15:23:17.286Z,97954.72
2019-04-06T15:25:45.938Z,97956.50
2019-04-06T15:28:16.963Z,97955.74
2019-04-06T15:30:45.028Z,97951.80
2019-04-06T15:33:13.088Z,97957.16
2019-04-06T15:35:41.144Z,97956.41
2019-04-06T15:38:15.376Z,97955.75
2019-04-06T15:40:49.405Z,97954.99
2019-04-06T15:43:18.863Z,97954.06
2019-04-06T15:45:48.053Z,97951.98
2019-04-06T15:48:19.057Z,97942.03
2019-04-06T15:50:59.663Z,97945.50
2019-04-06T15:53:27.763Z,97940.42
2019-04-06T15:56:01.880Z,97941.47
2019-04-06T15:58:35.664Z,97935.36
2019-04-06T16:01:20.508Z,97939.95
2019-04-06T16:03:51.352Z,97938.27
2019-04-06T16:06:25.433Z,97943.14
2019-04-06T16:08:59.281Z,97934.49
2019-04-06T16:11:36.267Z,97934.30
2019-04-06T16:14:07.207Z,97935.99
2019-04-06T16:16:41.041Z,97943.48
2019-04-06T16:19:11.890Z,97931.85
2019-04-06T16:21:40.183Z,97933.06
2019-04-06T16:24:25.276Z,97941.23
2019-04-06T16:26:53.561Z,97934.47
2019-04-06T16:29:24.811Z,97937.73
2019-04-06T16:32:12.296Z,97929.77
2019-04-06T16:34:55.206Z,97927.77
2019-04-06T16:37:23.549Z,97949.56
2019-04-06T16:40:08.137Z,97928.33
2019-04-06T16:42:36.597Z,97921.39
2019-04-06T16:45:12.531Z,97931.54
2019-04-06T16:47:52.511Z,97930.41
2019-04-06T16:50:36.216Z,97929.48
2019-04-06T16:53:16.253Z,97931.26
2019-04-06T16:55:50.401Z,97934.19
2019-04-06T16:58:35.532Z,97930.05
2019-04-06T17:01:13.087Z,97929.31
2019-04-06T17:03:44.218Z,97924.78
2019-04-06T17:06:18.537Z,97929.68
2019-04-06T17:08:52.470Z,97919.54
2019-04-06T17:11:36.007Z,97929.40
2019-04-06T17:14:04.044Z,97920.64
2019-04-06T17:16:35.118Z,97916.24
2019-04-06T17:19:12.247Z,97917.45
2019-04-06T17:21:41.032Z,97914.16
2019-04-06T17:24:17.966Z,97922.66
2019-04-06T17:26:46.121Z,97925.34
2019-04-06T17:29:25.981Z,97918.19
2019-04-06T17:31:56.922Z,97913.75
2019-04-06T17:34:53.056Z,97917.64
2019-04-06T17:37:31.439Z,97918.71
2019-04-06T17:40:14.802Z,97920.45
2019-04-06T17:42:59.386Z,97933.44
2019-04-06T17:45:46.377Z,97923.16
2019-04-06T17:48:23.255Z,97926.78
2019-04-06T17:51:00.962Z,97933.27
2019-04-06T17:53:47.301Z,97925.03
2019-04-06T17:56:32.289Z,97920.78
2019-04-06T17:59:18.805Z,97917.51
2019-04-06T18:01:47.790Z,97922.02
2019-04-06T18:04:18.533Z,97920.69
2019-04-06T18:07:01.620Z,97917.58
2019-04-06T18:09:43.935Z,97915.47
2019-04-06T18:12:12.377Z,97919.34
2019-04-06T18:14:39.534Z,97913.67
2019-04-06T18:17:06.138Z,97925.56
2019-04-06T18:19:34.692Z,97924.09
2019-04-06T18:22:00.679Z,97924.75
2019-04-06T18:24:27.144Z,97926.05
2019-04-06T18:26:53.166Z,97929.73
2019-04-06T18:29:19.819Z,97938.28
2019-04-06T18:31:48.970Z,97932.23
2019-04-06T18:34:16.057Z,97936.14
2019-04-06T18:36:53.363Z,97939.05
2019-04-06T18:39:21.291Z,97936.57
2019-04-06T18:41:47.425Z,97934.53
2019-04-06T18:44:13.656Z,97931.96
2019-04-06T18:46:40.377Z,97928.62
2019-04-06T18:49:06.847Z,97928.94
2019-04-06T18:51:33.043Z,97952.45
2019-04-06T18:53:59.724Z,97929.48
2019-04-06T18:56:26.653Z,97931.09
2019-04-06T18:58:53.000Z,97925.06
2019-04-06T19:01:19.499Z,97929.59
2019-04-06T19:03:46.076Z,97926.77
2019-04-06T19:06:12.385Z,97929.02
2019-04-06T19:08:39.259Z,97928.25
2019-04-06T19:11:05.861Z,97926.63
2019-04-06T19:13:32.584Z,97924.36
2019-04-06T19:15:59.331Z,97924.34
2019-04-06T19:18:25.495Z,97914.44
2019-04-06T19:20:51.940Z,97920.66
2019-04-06T19:23:18.509Z,97923.86
2019-04-06T19:25:45.815Z,97924.28
2019-04-06T19:28:12.843Z,97927.37
2019-04-06T19:30:39.462Z,97928.75
2019-04-06T19:33:05.926Z,97927.09
2019-04-06T19:35:33.022Z,97922.88
2019-04-06T19:37:59.639Z,97924.34
2019-04-06T19:40:26.401Z,97929.88
2019-04-06T19:42:53.671Z,97931.78
2019-04-06T19:45:20.090Z,97920.44
2019-04-06T19:47:47.161Z,97924.59
2019-04-06T19:50:13.900Z,97927.89
2019-04-06T19:52:40.723Z,97922.79
2019-04-06T19:55:07.491Z,97927.77
2019-04-06T19:57:33.919Z,97932.74
2019-04-06T20:00:00.096Z,97925.13
2019-04-06T20:02:26.749Z,97922.92
2019-04-06T20:04:53.133Z,97932.52
2019-04-06T20:07:19.824Z,97928.94
2019-04-06T20:09:46.476Z,97920.61
2019-04-06T20:12:12.737Z,97925.37
2019-04-06T20:14:38.894Z,97926.84
2019-04-06T20:17:05.721Z,97917.12
2019-04-06T20:19:31.878Z,97924.25
2019-04-06T20:21:58.033Z,97914.87
2019-04-06T20:24:24.480Z,97927.33
2019-04-06T20:26:51.046Z,97929.63
2019-04-06T20:29:18.129Z,97931.45
2019-04-06T20:31:44.690Z,97927.55
2019-04-06T20:34:11.051Z,97929.75
2019-04-06T20:36:37.677Z,97924.45
2019-04-06T20:39:06.634Z,97930.83
2019-04-06T20:41:33.467Z,97933.42
2019-04-06T20:44:00.087Z,97924.34
2019-04-06T20:46:26.341Z,97923.52
2019-04-06T20:48:52.456Z,97736.55
2019-04-06T20:51:19.239Z,97929.35
2019-04-06T20:53:45.691Z,97934.96
2019-04-06T20:56:12.171Z,97939.94
2019-04-06T20:58:39.165Z,97940.73
2019-04-06T21:01:05.521Z,97715.25
2019-04-06T21:03:32.141Z,97934.94
2019-04-06T21:05:58.556Z,97937.50
2019-04-06T21:08:25.193Z,97969.70
2019-04-06T21:10:51.305Z,97944.25
2019-04-06T21:13:17.902Z,97934.66
2019-04-06T21:15:45.085Z,97937.60
2019-04-06T21:18:11.512Z,97942.79
2019-04-06T21:20:38.408Z,97948.66
2019-04-06T21:23:05.129Z,97950.55
2019-04-06T21:25:31.382Z,97947.53
2019-04-06T21:27:57.815Z,97952.09
2019-04-06T21:30:24.529Z,97952.72
2019-04-06T21:32:51.449Z,97953.02
2019-04-06T21:35:18.036Z,97949.46
2019-04-06T21:37:45.052Z,97950.50
2019-04-06T21:40:11.675Z,97953.66
2019-04-06T21:42:38.282Z,97950.52
2019-04-06T21:45:06.350Z,97946.73
2019-04-06T21:47:32.928Z,97956.23
2019-04-06T21:49:59.174Z,97955.59
2019-04-06T21:52:26.229Z,97959.27
2019-04-06T21:54:52.643Z,97958.91
2019-04-06T21:57:19.776Z,97954.36
2019-04-06T21:59:46.324Z,97959.56
2019-04-06T22:02:12.903Z,97967.53
2019-04-06T22:04:39.213Z,97965.77
2019-04-06T22:07:06.440Z,97968.81
2019-04-06T22:09:33.553Z,97973.14
2019-04-06T22:12:00.409Z,97968.45
2019-04-06T22:14:26.977Z,97970.76
2019-04-06T22:16:53.238Z,97970.91
2019-04-06T22:19:19.280Z,97975.19
2019-04-06T22:21:46.328Z,97974.45
2019-04-06T22:24:12.476Z,97977.48
2019-04-06T22:26:39.363Z,97977.12
2019-04-06T22:29:06.599Z,97970.42
2019-04-06T22:31:33.290Z,97974.95
2019-04-06T22:33:59.783Z,97977.37
2019-04-06T22:36:25.917Z,97967.77
2019-04-06T22:38:52.052Z,97966.75
2019-04-06T22:41:18.394Z,97971.20
2019-04-06T22:43:45.706Z,97972.33
2019-04-06T22:46:12.459Z,97970.69
2019-04-06T22:48:39.213Z,97978.66
2019-04-06T22:51:05.696Z,97976.75
2019-04-06T22:53:31.761Z,97972.59
2019-04-06T22:55:57.816Z,97982.44
2019-04-06T22:58:24.587Z,97984.08
2019-04-06T23:00:52.831Z,97975.86
2019-04-06T23:03:20.857Z,97983.45
2019-04-06T23:05:48.907Z,97981.28
2019-04-06T23:08:15.042Z,97986.20
2019-04-06T23:10:41.176Z,97992.39
2019-04-06T23:13:07.593Z,97984.92
2019-04-06T23:15:33.867Z,97643.11
2019-04-06T23:18:00.348Z,97988.06
2019-04-06T23:20:27.173Z,97987.81
2019-04-06T23:22:53.814Z,97993.93
2019-04-06T23:25:20.028Z,97982.55
2019-04-06T23:27:46.822Z,97986.58
2019-04-06T23:30:13.193Z,97989.48
2019-04-06T23:32:41.096Z,97989.83
2019-04-06T23:35:08.128Z,97988.56
2019-04-06T23:37:34.567Z,97990.45
2019-04-06T23:40:01.636Z,98005.49
2019-04-06T23:42:28.046Z,97998.14
2019-04-06T23:44:54.217Z,97999.91
2019-04-06T23:47:20.715Z,98000.27
2019-04-06T23:49:46.898Z,97996.09
2019-04-06T23:52:13.646Z,98000.41
2019-04-06T23:54:40.642Z,97998.75
2019-04-06T23:57:07.522Z,97991.42
2019-04-06T23:59:33.965Z,97993.81
